createdAt,value
2022-09-04T00:01:23.649Z,19.17
2022-09-04T00:03:58.477Z,19.14
2022-09-04T00:07:14.369Z,19.10
2022-09-04T00:10:20.364Z,19.04
2022-09-04T00:13:04.480Z,18.99
2022-09-04T00:16:09.006Z,18.95
2022-09-04T00:19:08.198Z,18.91
2022-09-04T00:21:50.991Z,18.85
2022-09-04T00:24:26.037Z,18.81
2022-09-04T00:27:27.803Z,18.77
2022-09-04T00:30:16.709Z,18.71
2022-09-04T00:33:03.913Z,18.68
2022-09-04T00:36:02.374Z,18.64
2022-09-04T00:38:46.136Z,18.60
2022-09-04T00:42:12.127Z,18.56
2022-09-04T00:45:27.780Z,18.53
2022-09-04T00:48:52.631Z,18.49
2022-09-04T00:51:37.974Z,18.41
2022-09-04T00:54:52.584Z,18.37
2022-09-04T00:57:48.074Z,18.35
2022-09-04T01:00:20.607Z,18.32
2022-09-04T01:03:48.513Z,18.29
2022-09-04T01:07:01.198Z,18.24
2022-09-04T01:09:50.819Z,18.28
2022-09-04T01:13:03.930Z,18.29
2022-09-04T01:16:22.107Z,18.26
2022-09-04T01:19:15.354Z,18.19
2022-09-04T01:22:46.558Z,18.16
2022-09-04T01:25:30.350Z,18.15
2022-09-04T01:28:16.827Z,18.11
2022-09-04T01:31:01.386Z,18.09
2022-09-04T01:33:48.185Z,18.06
2022-09-04T01:36:41.785Z,18.02
2022-09-04T01:39:09.845Z,17.99
2022-09-04T01:41:51.406Z,17.97
2022-09-04T01:44:19.355Z,17.94
2022-09-04T01:47:25.811Z,17.91
2022-09-04T01:50:11.203Z,17.87
2022-09-04T01:53:01.985Z,17.81
2022-09-04T01:55:41.774Z,17.78
2022-09-04T01:59:11.615Z,17.75
2022-09-04T02:02:08.143Z,17.69
2022-09-04T02:05:48.374Z,17.66
2022-09-04T02:08:55.205Z,17.58
2022-09-04T02:11:28.524Z,17.59
2022-09-04T02:14:40.894Z,17.54
2022-09-04T02:17:20.931Z,17.48
2022-09-04T02:20:23.900Z,17.46
2022-09-04T02:23:07.541Z,17.42
2022-09-04T02:26:02.124Z,17.43
2022-09-04T02:29:15.638Z,17.43
2022-09-04T02:32:12.136Z,17.38
2022-09-04T02:35:04.157Z,17.35
2022-09-04T02:38:05.632Z,17.33
2022-09-04T02:40:56.343Z,17.28
2022-09-04T02:44:22.262Z,17.26
2022-09-04T02:47:25.261Z,17.21
2022-09-04T02:50:47.948Z,17.20
2022-09-04T02:54:02.290Z,17.15
2022-09-04T02:57:00.086Z,17.10
2022-09-04T03:00:21.505Z,17.09
2022-09-04T03:03:00.159Z,17.04
2022-09-04T03:05:43.094Z,17.01
2022-09-04T03:08:43.713Z,16.98
2022-09-04T03:11:35.061Z,16.94
2022-09-04T03:14:16.705Z,16.91
2022-09-04T03:17:21.516Z,16.89
2022-09-04T03:20:13.877Z,16.86
2022-09-04T03:22:55.652Z,16.82
2022-09-04T03:26:10.053Z,16.81
2022-09-04T03:29:15.351Z,16.79
2022-09-04T03:32:25.932Z,16.75
2022-09-04T03:35:08.063Z,16.65
2022-09-04T03:38:05.882Z,16.74
2022-09-04T03:40:50.158Z,16.76
2022-09-04T03:44:23.051Z,16.76
2022-09-04T03:47:32.216Z,16.73
2022-09-04T03:50:44.769Z,16.71
2022-09-04T03:53:44.705Z,16.69
2022-09-04T03:56:54.073Z,16.69
2022-09-04T04:00:18.161Z,16.68
2022-09-04T04:03:49.950Z,16.66
2022-09-04T04:06:46.715Z,16.67
2022-09-04T04:10:12.558Z,16.59
2022-09-04T04:13:23.238Z,16.59
2022-09-04T04:16:40.364Z,16.57
2022-09-04T04:19:36.768Z,16.52
2022-09-04T04:23:05.052Z,16.51
2022-09-04T04:26:07.201Z,16.48
2022-09-04T04:29:08.689Z,16.44
2022-09-04T04:32:10.891Z,16.42
2022-09-04T04:35:11.512Z,16.36
2022-09-04T04:38:11.829Z,16.32
2022-09-04T04:41:55.643Z,16.29
2022-09-04T04:45:41.826Z,16.23
2022-09-04T04:48:46.521Z,16.20
2022-09-04T04:51:57.180Z,16.18
2022-09-04T04:55:41.335Z,16.17
2022-09-04T04:59:06.785Z,16.15
2022-09-04T05:01:56.176Z,16.11
2022-09-04T05:04:54.992Z,16.08
2022-09-04T05:07:37.316Z,16.08
2022-09-04T05:10:47.210Z,16.08
2022-09-04T05:13:48.722Z,16.07
2022-09-04T05:16:59.349Z,16.04
2022-09-04T05:19:47.382Z,16.03
2022-09-04T05:22:42.486Z,16.02
2022-09-04T05:26:00.785Z,16.02
2022-09-04T05:29:06.256Z,16.02
2022-09-04T05:32:28.694Z,16.02
2022-09-04T05:35:45.821Z,16.05
2022-09-04T05:38:31.046Z,16.06
2022-09-04T05:41:26.375Z,16.07
2022-09-04T05:44:58.658Z,16.12
2022-09-04T05:47:50.315Z,16.12
2022-09-04T05:51:02.312Z,16.14
2022-09-04T05:54:18.327Z,16.17
2022-09-04T05:57:21.465Z,16.20
2022-09-04T06:00:14.564Z,16.24
2022-09-04T06:03:34.955Z,16.27
2022-09-04T06:06:52.884Z,16.34
2022-09-04T06:09:53.932Z,16.40
2022-09-04T06:13:01.507Z,16.47
2022-09-04T06:16:29.737Z,16.52
2022-09-04T06:19:39.427Z,16.57
2022-09-04T06:22:29.504Z,16.67
2022-09-04T06:25:37.654Z,16.72
2022-09-04T06:28:55.376Z,16.81
2022-09-04T06:31:39.158Z,16.88
2022-09-04T06:34:43.647Z,16.92
2022-09-04T06:38:23.152Z,17.01
2022-09-04T06:41:47.739Z,17.11
2022-09-04T06:45:05.019Z,17.20
2022-09-04T06:48:13.623Z,17.31
2022-09-04T06:51:52.506Z,17.42
2022-09-04T06:54:34.860Z,17.49
2022-09-04T06:57:40.056Z,17.57
2022-09-04T07:00:12.886Z,17.62
2022-09-04T07:03:38.594Z,17.75
2022-09-04T07:06:24.736Z,17.84
2022-09-04T07:09:14.771Z,17.93
2022-09-04T07:12:29.045Z,18.09
2022-09-04T07:15:48.373Z,18.22
2022-09-04T07:18:56.385Z,18.35
2022-09-04T07:21:43.339Z,18.44
2022-09-04T07:24:32.546Z,18.58
2022-09-04T07:27:17.723Z,18.68
2022-09-04T07:30:20.303Z,18.83
2022-09-04T07:33:02.916Z,18.93
2022-09-04T07:35:44.701Z,19.03
2022-09-04T07:38:50.546Z,19.13
2022-09-04T07:41:49.494Z,19.31
2022-09-04T07:44:33.914Z,19.43
2022-09-04T07:47:43.095Z,19.61
2022-09-04T07:51:03.442Z,19.76
2022-09-04T07:54:22.731Z,19.89
2022-09-04T07:58:03.273Z,20.05
2022-09-04T08:01:08.222Z,20.18
2022-09-04T08:04:22.861Z,20.31
2022-09-04T08:07:01.801Z,20.40
2022-09-04T08:10:14.538Z,20.55
2022-09-04T08:13:22.482Z,20.70
2022-09-04T08:16:38.832Z,20.81
2022-09-04T08:19:22.426Z,20.90
2022-09-04T08:21:53.208Z,20.99
2022-09-04T08:24:46.113Z,21.14
2022-09-04T08:27:50.358Z,21.23
2022-09-04T08:30:21.604Z,21.32
2022-09-04T08:33:33.225Z,21.46
2022-09-04T08:36:38.413Z,21.60
2022-09-04T08:39:11.011Z,21.74
2022-09-04T08:42:20.022Z,21.88
2022-09-04T08:45:46.602Z,22.02
2022-09-04T08:48:52.751Z,22.12
2022-09-04T08:51:39.667Z,22.24
2022-09-04T08:54:57.762Z,22.37
2022-09-04T08:58:07.283Z,22.53
2022-09-04T09:01:23.789Z,22.68
2022-09-04T09:04:36.424Z,22.82
2022-09-04T09:07:43.986Z,22.91
2022-09-04T09:11:03.221Z,23.05
2022-09-04T09:13:46.107Z,23.17
2022-09-04T09:16:50.547Z,23.31
2022-09-04T09:20:29.179Z,23.51
2022-09-04T09:23:21.472Z,23.66
2022-09-04T09:26:26.746Z,23.76
2022-09-04T09:29:39.179Z,23.86
2022-09-04T09:32:28.953Z,23.99
2022-09-04T09:36:09.413Z,24.13
2022-09-04T09:39:53.860Z,24.25
2022-09-04T09:42:59.457Z,24.36
2022-09-04T09:46:02.652Z,24.47
2022-09-04T09:49:17.519Z,24.65
2022-09-04T09:52:43.255Z,24.85
2022-09-04T09:55:53.862Z,24.98
2022-09-04T09:59:26.833Z,25.37
2022-09-04T10:02:30.016Z,25.63
2022-09-04T10:05:52.815Z,25.74
2022-09-04T10:09:30.342Z,25.90
2022-09-04T10:12:27.511Z,26.15
2022-09-04T10:15:07.744Z,26.32
2022-09-04T10:18:02.808Z,26.46
2022-09-04T10:20:55.878Z,26.65
2022-09-04T10:23:36.903Z,26.72
2022-09-04T10:26:15.713Z,26.82
2022-09-04T10:29:14.364Z,26.83
2022-09-04T10:32:35.921Z,27.08
2022-09-04T10:35:47.169Z,27.29
2022-09-04T10:39:28.533Z,27.69
2022-09-04T10:42:48.769Z,28.15
2022-09-04T10:45:31.402Z,29.26
2022-09-04T10:48:36.656Z,30.17
2022-09-04T10:51:52.580Z,31.01
2022-09-04T10:54:35.756Z,31.62
2022-09-04T10:57:52.577Z,32.46
2022-09-04T11:00:30.658Z,32.91
2022-09-04T11:03:32.039Z,33.42
2022-09-04T11:06:23.381Z,33.89
2022-09-04T11:09:36.836Z,34.46
2022-09-04T11:12:25.038Z,35.03
2022-09-04T11:15:16.343Z,35.52
2022-09-04T11:18:33.328Z,36.14
2022-09-04T11:21:25.657Z,36.59
2022-09-04T11:24:27.697Z,37.03
2022-09-04T11:28:12.945Z,36.93
2022-09-04T11:31:07.077Z,37.14
2022-09-04T11:34:14.048Z,37.68
2022-09-04T11:37:15.963Z,37.75
2022-09-04T11:40:18.994Z,37.59
2022-09-04T11:43:37.509Z,38.00
2022-09-04T11:47:16.505Z,38.69
2022-09-04T11:50:14.433Z,38.97
2022-09-04T11:53:13.145Z,39.22
2022-09-04T11:56:08.671Z,39.38
2022-09-04T11:58:51.385Z,39.42
2022-09-04T12:02:15.849Z,39.89
2022-09-04T12:05:39.195Z,40.19
2022-09-04T12:09:05.048Z,39.87
2022-09-04T12:12:18.027Z,39.97
2022-09-04T12:15:22.276Z,40.90
2022-09-04T12:18:45.764Z,38.55
2022-09-04T12:21:43.279Z,38.81
2022-09-04T12:24:40.460Z,39.03
2022-09-04T12:28:05.021Z,39.34
2022-09-04T12:31:51.683Z,39.71
2022-09-04T12:34:48.348Z,40.19
2022-09-04T12:38:08.953Z,40.57
2022-09-04T12:40:47.876Z,40.83
2022-09-04T12:44:02.076Z,41.23
2022-09-04T12:47:19.188Z,41.39
2022-09-04T12:50:34.842Z,42.02
2022-09-04T12:54:04.756Z,42.48
2022-09-04T12:57:08.292Z,42.46
2022-09-04T13:00:10.778Z,42.69
2022-09-04T13:02:49.463Z,42.70
2022-09-04T13:06:06.126Z,42.39
2022-09-04T13:08:57.698Z,42.91
2022-09-04T13:12:01.859Z,43.41
2022-09-04T13:15:19.431Z,43.29
2022-09-04T13:18:21.202Z,43.45
2022-09-04T13:21:23.377Z,44.06
2022-09-04T13:24:09.675Z,44.05
2022-09-04T13:27:32.411Z,44.05
2022-09-04T13:30:25.374Z,42.05
2022-09-04T13:33:16.550Z,42.56
2022-09-04T13:36:19.071Z,42.42
2022-09-04T13:39:01.984Z,42.19
2022-09-04T13:41:54.467Z,41.82
2022-09-04T13:45:15.254Z,42.80
2022-09-04T13:47:58.086Z,42.84
2022-09-04T13:50:44.321Z,42.87
2022-09-04T13:53:24.556Z,43.64
2022-09-04T13:55:59.263Z,43.54
2022-09-04T13:58:33.491Z,43.53
2022-09-04T14:01:13.527Z,44.16
2022-09-04T14:04:00.709Z,44.24
2022-09-04T14:06:32.388Z,44.26
2022-09-04T14:09:04.663Z,44.17
2022-09-04T14:12:19.063Z,43.44
2022-09-04T14:15:23.784Z,43.36
2022-09-04T14:18:48.628Z,42.79
2022-09-04T14:22:36.061Z,43.13
2022-09-04T14:25:38.298Z,42.02
2022-09-04T14:28:51.165Z,42.49
2022-09-04T14:32:05.830Z,42.60
2022-09-04T14:34:57.107Z,43.09
2022-09-04T14:38:32.544Z,43.13
2022-09-04T14:41:20.561Z,41.98
2022-09-04T14:43:59.139Z,42.55
2022-09-04T14:47:02.096Z,43.03
2022-09-04T14:49:31.853Z,43.06
2022-09-04T14:52:14.423Z,43.24
2022-09-04T14:54:46.122Z,43.43
2022-09-04T14:57:50.282Z,42.53
2022-09-04T15:00:20.946Z,42.52
2022-09-04T15:03:15.671Z,42.40
2022-09-04T15:05:55.771Z,42.21
2022-09-04T15:08:40.654Z,42.54
2022-09-04T15:11:31.643Z,42.83
2022-09-04T15:14:32.959Z,42.39
2022-09-04T15:17:06.266Z,42.79
2022-09-04T15:19:55.083Z,41.87
2022-09-04T15:22:33.867Z,42.12
2022-09-04T15:25:56.778Z,41.55
2022-09-04T15:28:30.909Z,42.12
2022-09-04T15:31:27.692Z,41.04
2022-09-04T15:34:28.739Z,40.51
2022-09-04T15:37:23.003Z,40.76
2022-09-04T15:40:13.200Z,40.50
2022-09-04T15:43:09.783Z,40.82
2022-09-04T15:45:57.262Z,40.57
2022-09-04T15:49:03.103Z,40.33
2022-09-04T15:52:39.842Z,40.20
2022-09-04T15:55:31.081Z,39.86
2022-09-04T15:58:19.675Z,40.04
2022-09-04T16:01:16.775Z,39.57
2022-09-04T16:04:12.617Z,39.19
2022-09-04T16:06:54.128Z,38.76
2022-09-04T16:09:36.462Z,38.19
2022-09-04T16:12:24.152Z,37.87
2022-09-04T16:15:22.336Z,37.92
2022-09-04T16:17:55.500Z,37.62
2022-09-04T16:20:58.226Z,37.49
2022-09-04T16:23:38.245Z,37.22
2022-09-04T16:26:19.272Z,36.97
2022-09-04T16:28:55.844Z,36.80
2022-09-04T16:31:32.054Z,36.64
2022-09-04T16:34:32.490Z,36.43
2022-09-04T16:37:36.090Z,36.17
2022-09-04T16:40:39.442Z,35.96
2022-09-04T16:43:25.423Z,35.70
2022-09-04T16:46:07.779Z,35.52
2022-09-04T16:48:52.836Z,34.78
2022-09-04T16:51:49.193Z,34.97
2022-09-04T16:54:33.385Z,35.13
2022-09-04T16:57:18.665Z,35.16
2022-09-04T17:00:14.733Z,35.25
2022-09-04T17:03:16.825Z,35.03
2022-09-04T17:06:23.613Z,34.75
2022-09-04T17:09:28.339Z,34.50
2022-09-04T17:12:17.787Z,34.30
2022-09-04T17:15:21.720Z,34.13
2022-09-04T17:17:51.648Z,33.98
2022-09-04T17:26:21.239Z,33.80
2022-09-04T17:28:58.087Z,33.61
2022-09-04T17:28:59.757Z,33.41
2022-09-04T17:29:53.372Z,33.20
2022-09-04T17:33:35.539Z,33.03
2022-09-04T17:40:43.467Z,32.86
2022-09-04T17:40:54.949Z,32.65
2022-09-04T17:42:09.343Z,32.44
2022-09-04T17:45:12.023Z,32.23
2022-09-04T17:47:42.727Z,32.03
2022-09-04T17:50:24.497Z,31.83
2022-09-04T17:53:03.098Z,31.64
2022-09-04T17:55:38.855Z,31.44
2022-09-04T17:59:07.744Z,31.27
2022-09-04T18:01:51.645Z,31.02
2022-09-04T18:04:47.087Z,30.83
2022-09-04T18:08:09.977Z,30.63
2022-09-04T18:10:45.796Z,30.43
2022-09-04T18:14:02.083Z,30.27
2022-09-04T18:16:35.971Z,30.07
2022-09-04T18:19:32.441Z,29.92
2022-09-04T18:22:33.556Z,29.72
2022-09-04T18:25:50.843Z,29.59
2022-09-04T18:30:10.055Z,29.38
2022-09-04T18:37:13.024Z,29.19
2022-09-04T18:37:17.614Z,28.99
2022-09-04T18:39:32.439Z,28.81
2022-09-04T18:49:23.835Z,28.69
2022-09-04T18:50:28.112Z,28.40
2022-09-04T18:50:45.997Z,28.46
2022-09-04T18:51:24.833Z,28.28
2022-09-04T18:54:30.409Z,28.13
2022-09-04T18:57:21.006Z,28.02
2022-09-04T19:00:08.195Z,27.92
2022-09-04T19:02:53.797Z,27.75
2022-09-04T19:05:24.508Z,27.59
2022-09-04T19:07:57.282Z,27.58
2022-09-04T19:11:17.464Z,27.48
2022-09-04T19:14:10.600Z,27.33
2022-09-04T19:16:55.458Z,27.26
2022-09-04T19:19:35.613Z,26.88
2022-09-04T19:22:28.521Z,27.06
2022-09-04T19:25:27.416Z,27.00
2022-09-04T19:28:18.799Z,26.80
2022-09-04T19:30:47.137Z,26.72
2022-09-04T19:33:42.014Z,26.48
2022-09-04T19:36:23.403Z,26.21
2022-09-04T19:45:44.403Z,26.48
2022-09-04T19:46:17.788Z,26.34
2022-09-04T19:52:48.255Z,26.20
2022-09-04T19:53:30.629Z,26.13
2022-09-04T19:56:11.564Z,26.08
2022-09-04T19:59:04.549Z,26.01
2022-09-04T20:02:03.261Z,25.94
2022-09-04T20:04:41.739Z,25.89
2022-09-04T20:07:49.215Z,25.72
2022-09-04T20:10:50.399Z,25.38
2022-09-04T20:13:48.888Z,25.43
2022-09-04T20:16:30.837Z,25.49
2022-09-04T20:19:46.265Z,25.41
2022-09-04T20:22:46.245Z,25.36
2022-09-04T20:26:04.272Z,25.35
2022-09-04T20:29:17.876Z,25.23
2022-09-04T20:31:52.981Z,25.01
2022-09-04T20:34:31.174Z,25.07
2022-09-04T20:37:44.595Z,24.87
2022-09-04T20:40:42.061Z,24.90
2022-09-04T20:43:27.462Z,24.81
2022-09-04T20:48:17.397Z,24.82
2022-09-04T20:52:49.564Z,24.76
2022-09-04T20:53:05.208Z,24.61
2022-09-04T20:55:05.103Z,24.34
2022-09-04T21:03:11.045Z,24.55
2022-09-04T21:03:21.971Z,24.47
2022-09-04T21:04:25.010Z,24.42
2022-09-04T21:07:33.431Z,24.33
2022-09-04T21:10:31.897Z,24.29
2022-09-04T21:13:14.066Z,24.23
2022-09-04T21:15:52.652Z,24.17
2022-09-04T21:18:32.388Z,24.12
2022-09-04T21:21:51.905Z,24.11
2022-09-04T21:24:44.877Z,24.04
2022-09-04T21:27:49.435Z,23.98
2022-09-04T21:31:09.367Z,23.93
2022-09-04T21:34:24.729Z,23.85
2022-09-04T21:37:13.132Z,23.80
2022-09-04T21:40:31.038Z,23.75
2022-09-04T21:43:35.754Z,23.69
2022-09-04T21:46:31.465Z,23.63
2022-09-04T21:49:08.179Z,23.59
2022-09-04T21:52:03.924Z,23.53
2022-09-04T21:58:58.628Z,23.51
2022-09-04T22:02:27.527Z,23.43
2022-09-04T22:02:57.635Z,23.39
2022-09-04T22:06:05.690Z,23.33
2022-09-04T22:13:30.542Z,23.29
2022-09-04T22:13:38.743Z,23.24
2022-09-04T22:15:11.326Z,23.20
2022-09-04T22:18:40.456Z,23.17
2022-09-04T22:21:55.430Z,23.14
2022-09-04T22:25:35.279Z,23.09
2022-09-04T22:28:41.817Z,23.02
2022-09-04T22:32:06.842Z,22.99
2022-09-04T22:35:17.150Z,22.93
2022-09-04T22:38:11.361Z,22.89
2022-09-04T22:41:03.133Z,22.85
2022-09-04T22:43:46.819Z,22.82
2022-09-04T22:46:42.970Z,22.80
2022-09-04T22:49:29.652Z,22.76
2022-09-04T22:52:37.675Z,22.74
2022-09-04T22:56:06.641Z,22.72
2022-09-04T22:58:53.427Z,22.67
2022-09-04T23:02:14.120Z,22.66
2022-09-04T23:05:20.813Z,22.61
2022-09-04T23:13:49.733Z,22.56
2022-09-04T23:13:52.518Z,22.54
2022-09-04T23:15:23.429Z,22.53
2022-09-04T23:22:35.469Z,22.48
2022-09-04T23:26:36.245Z,22.42
2022-09-04T23:26:46.043Z,22.37
2022-09-04T23:29:08.558Z,22.37
2022-09-04T23:31:51.988Z,22.30
2022-09-04T23:35:14.297Z,22.30
2022-09-04T23:38:10.679Z,22.25
2022-09-04T23:40:59.276Z,22.22
2022-09-04T23:44:25.697Z,22.20
2022-09-04T23:47:47.031Z,22.18
2022-09-04T23:50:31.118Z,22.14
2022-09-04T23:53:37.431Z,22.11
2022-09-04T23:56:29.937Z,22.09
2022-09-04T23:59:27.367Z,22.05
